Time;durP1;ratioP1;P1;durP2;ratioP2;P2;SDS_P1;SDS_P2;PMS_P1;PMS_P2;Temp;Humidity;BMP_temperature;BMP_pressure;BME280_temperature;BME280_humidity;BME280_pressure;Samples;Min_cycle;Max_cycle;Signal;HPM_P1;HPM_P2
2022/06/02 00:05:02;;;;;;;;;;;11.00;99.90;;;;;;10412550;28;86855;-53
2022/06/02 00:10:06;;;;;;;;;;;11.00;99.90;;;;;;10409251;28;86504;-54
2022/06/02 00:15:26;;;;;;;;;;;11.00;99.90;;;;;;10396772;28;84150;-55
2022/06/02 00:20:42;;;;;;;;;;;10.90;99.90;;;;;;10369973;28;84043;-55
2022/06/02 00:26:06;;;;;;;;;;;10.90;99.90;;;;;;10370015;28;86026;-57
2022/06/02 00:31:33;;;;;;;;;;;10.80;99.90;;;;;;10371900;28;84278;-56
2022/06/02 00:36:37;;;;;;;;;;;10.70;99.90;;;;;;10370856;28;84930;-52
2022/06/02 00:41:49;;;;;;;;;;;10.70;99.90;;;;;;10370383;28;84092;-53
2022/06/02 00:46:52;;;;;;;;;;;10.60;99.90;;;;;;10382729;28;84877;-53
2022/06/02 00:51:59;;;;;;;;;;;10.60;99.90;;;;;;10411266;28;84370;-54
2022/06/02 00:57:31;;;;;;;;;;;10.50;99.90;;;;;;10411840;28;84159;-55
2022/06/02 01:02:33;;;;;;;;;;;10.50;99.90;;;;;;10410716;28;84340;-54
2022/06/02 01:07:46;;;;;;;;;;;10.40;99.90;;;;;;10410958;28;84926;-54
2022/06/02 01:13:07;;;;;;;;;;;10.30;99.90;;;;;;10410655;28;84121;-52
2022/06/02 01:18:07;;;;;;;;;;;10.30;99.90;;;;;;10377177;28;84774;-49
2022/06/02 01:23:18;;;;;;;;;;;10.20;99.90;;;;;;10410062;28;84943;-52
2022/06/02 01:28:30;;;;;;;;;;;10.20;99.90;;;;;;10411203;28;84814;-54
2022/06/02 01:33:31;;;;;;;;;;;10.20;99.90;;;;;;10407537;28;85059;-54
2022/06/02 01:38:45;;;;;;;;;;;10.10;99.90;;;;;;10368782;28;85316;-56
2022/06/02 01:43:59;;;;;;;;;;;10.00;99.90;;;;;;10372261;28;84060;-54
2022/06/02 01:49:18;;;;;;;;;;;10.00;99.90;;;;;;10369326;28;84733;-54
2022/06/02 01:54:37;;;;;;;;;;;9.90;99.90;;;;;;10368429;28;84871;-54
2022/06/02 01:59:57;;;;;;;;;;;9.90;99.90;;;;;;10387400;28;84280;-54
2022/06/02 02:05:03;;;;;;;;;;;9.80;99.90;;;;;;10408538;28;85078;-53
2022/06/02 02:10:07;;;;;;;;;;;9.80;99.90;;;;;;10409410;28;84757;-52
2022/06/02 02:15:42;;;;;;;;;;;9.70;99.90;;;;;;10394133;28;84285;-50
2022/06/02 02:21:05;;;;;;;;;;;9.60;99.90;;;;;;10347596;28;86942;-51
2022/06/02 02:26:12;;;;;;;;;;;9.70;99.90;;;;;;10367971;28;84725;-55
2022/06/02 02:31:17;;;;;;;;;;;9.70;99.90;;;;;;10407911;28;86261;-54
2022/06/02 02:36:53;;;;;;;;;;;9.70;99.90;;;;;;10375995;28;84721;-51
2022/06/02 02:42:06;;;;;;;;;;;9.70;99.90;;;;;;10364090;28;84250;-52
2022/06/02 02:47:11;;;;;;;;;;;9.60;99.90;;;;;;10369376;28;85102;-53
2022/06/02 02:52:20;;;;;;;;;;;9.60;99.90;;;;;;10360182;22;84421;-53
2022/06/02 02:57:31;;;;;;;;;;;9.40;99.90;;;;;;10322188;28;84490;-48
2022/06/02 03:02:35;;;;;;;;;;;9.30;99.90;;;;;;10322631;28;84368;-49
2022/06/02 03:07:35;;;;;;;;;;;9.30;99.90;;;;;;10324239;28;84025;-49
2022/06/02 03:12:58;;;;;;;;;;;9.30;99.90;;;;;;10321783;28;84828;-49
2022/06/02 03:18:27;;;;;;;;;;;9.20;99.90;;;;;;10321232;28;86194;-49
2022/06/02 03:23:46;;;;;;;;;;;9.20;99.90;;;;;;10285455;28;86057;-47
2022/06/02 03:28:51;;;;;;;;;;;9.20;99.90;;;;;;10326845;28;84097;-51
2022/06/02 03:34:06;;;;;;;;;;;9.20;99.90;;;;;;10326597;28;84842;-52
2022/06/02 03:39:08;;;;;;;;;;;9.20;99.90;;;;;;10330064;28;84961;-49
2022/06/02 03:44:22;;;;;;;;;;;9.30;99.90;;;;;;10329376;28;84831;-50
2022/06/02 03:49:41;;;;;;;;;;;9.40;99.90;;;;;;10327839;28;86976;-51
2022/06/02 03:54:55;;;;;;;;;;;9.40;99.90;;;;;;10329838;28;84254;-50
2022/06/02 03:59:55;;;;;;;;;;;9.40;99.90;;;;;;10328449;28;84076;-49
2022/06/02 04:05:03;;;;;;;;;;;9.40;99.90;;;;;;10329232;28;84925;-48
2022/06/02 04:10:11;;;;;;;;;;;9.60;99.90;;;;;;10327275;28;84233;-52
2022/06/02 04:15:12;;;;;;;;;;;9.70;99.90;;;;;;10328017;28;84266;-50
2022/06/02 04:25:52;;;;;;;;;;;9.90;99.90;;;;;;10323986;28;85269;-54
2022/06/02 04:31:10;;;;;;;;;;;9.90;99.90;;;;;;10325493;28;84922;-55
2022/06/02 04:36:14;;;;;;;;;;;10.00;99.90;;;;;;10347967;28;84853;-51
2022/06/02 04:41:22;;;;;;;;;;;10.10;99.90;;;;;;10332050;28;85376;-54
2022/06/02 04:46:22;;;;;;;;;;;10.20;99.90;;;;;;10326977;28;84891;-54
2022/06/02 04:51:23;;;;;;;;;;;10.40;99.90;;;;;;10326354;28;84209;-53
2022/06/02 04:56:29;;;;;;;;;;;10.60;99.90;;;;;;10327483;28;84883;-55
2022/06/02 05:01:49;;;;;;;;;;;10.60;99.90;;;;;;10325430;28;84150;-55
2022/06/02 05:06:52;;;;;;;;;;;10.70;99.90;;;;;;10323146;28;85776;-56
2022/06/02 05:11:53;;;;;;;;;;;10.90;99.90;;;;;;10326256;28;85067;-56
2022/06/02 05:17:01;;;;;;;;;;;11.10;99.90;;;;;;10326773;28;84748;-56
2022/06/02 05:22:17;;;;;;;;;;;11.30;99.90;;;;;;10322982;28;84084;-56
2022/06/02 05:27:24;;;;;;;;;;;11.50;99.90;;;;;;10320359;28;84740;-52
2022/06/02 05:32:36;;;;;;;;;;;11.70;99.90;;;;;;10323802;28;85348;-51
2022/06/02 05:38:00;;;;;;;;;;;11.80;99.90;;;;;;10322088;28;84805;-52
2022/06/02 05:43:28;;;;;;;;;;;12.00;99.90;;;;;;10321713;28;84121;-52
2022/06/02 05:48:44;;;;;;;;;;;12.10;99.90;;;;;;10330561;28;84195;-50
2022/06/02 05:53:50;;;;;;;;;;;12.30;99.90;;;;;;10320675;28;84947;-51
2022/06/02 05:59:10;;;;;;;;;;;12.40;99.90;;;;;;10323439;28;84344;-52
2022/06/02 06:04:23;;;;;;;;;;;12.60;72.30;;;;;;10322524;28;85236;-52
2022/06/02 06:09:36;;;;;;;;;;;12.80;62.60;;;;;;10323393;28;84954;-56
2022/06/02 06:14:40;;;;;;;;;;;12.80;26.80;;;;;;10323182;28;84874;-49
2022/06/02 06:19:53;;;;;;;;;;;12.80;48.70;;;;;;10322125;28;86349;-52
2022/06/02 06:25:02;;;;;;;;;;;12.90;13.80;;;;;;10322702;28;84860;-51
2022/06/02 06:30:10;;;;;;;;;;;13.00;1.00;;;;;;10314247;28;84796;-57
2022/06/02 06:35:29;;;;;;;;;;;13.10;1.00;;;;;;10299516;28;84291;-50
2022/06/02 06:40:46;;;;;;;;;;;13.40;1.00;;;;;;10322892;28;86177;-51
2022/06/02 06:45:52;;;;;;;;;;;13.50;1.00;;;;;;10325220;28;84000;-51
2022/06/02 06:51:09;;;;;;;;;;;13.90;1.00;;;;;;10323969;28;84438;-48
2022/06/02 06:56:21;;;;;;;;;;;13.90;1.00;;;;;;10324962;28;84614;-51
2022/06/02 07:01:26;;;;;;;;;;;14.20;1.00;;;;;;10328570;28;84620;-51
2022/06/02 07:06:45;;;;;;;;;;;14.00;1.00;;;;;;10328434;28;85277;-52
2022/06/02 07:17:17;;;;;;;;;;;14.00;1.00;;;;;;10332255;28;85053;-61
2022/06/02 07:22:20;;;;;;;;;;;14.50;1.00;;;;;;10325920;28;85049;-61
2022/06/02 07:27:29;;;;;;;;;;;15.30;1.00;;;;;;10326645;28;84711;-52
2022/06/02 07:32:30;;;;;;;;;;;16.30;99.90;;;;;;10339268;28;84908;-57
2022/06/02 07:37:33;;;;;;;;;;;17.60;1.00;;;;;;10323750;28;84928;-50
2022/06/02 07:42:52;;;;;;;;;;;18.20;99.90;;;;;;10327115;28;84609;-51
2022/06/02 07:48:01;;;;;;;;;;;18.90;1.00;;;;;;10325596;28;84831;-52
2022/06/02 07:53:07;;;;;;;;;;;18.80;1.00;;;;;;10312612;28;84094;-48
2022/06/02 07:58:20;;;;;;;;;;;17.90;1.00;;;;;;10328222;28;84829;-48
2022/06/02 08:03:33;;;;;;;;;;;17.20;99.90;;;;;;10328102;28;84114;-48
2022/06/02 08:08:40;;;;;;;;;;;17.10;99.90;;;;;;10331405;28;85275;-49
2022/06/02 08:13:43;;;;;;;;;;;16.90;99.90;;;;;;10326871;28;84172;-49
2022/06/02 08:18:50;;;;;;;;;;;16.40;1.00;;;;;;10328406;28;84161;-52
2022/06/02 08:23:50;;;;;;;;;;;16.40;1.00;;;;;;10331354;28;85959;-53
2022/06/02 08:29:03;;;;;;;;;;;17.00;1.00;;;;;;10327909;28;84751;-50
2022/06/02 08:34:06;;;;;;;;;;;18.00;99.90;;;;;;10327030;28;84875;-51
2022/06/02 08:39:30;;;;;;;;;;;18.90;1.00;;;;;;10328245;28;84269;-53
2022/06/02 08:44:43;;;;;;;;;;;20.10;1.00;;;;;;10325780;28;84886;-49
2022/06/02 08:49:46;;;;;;;;;;;20.60;1.00;;;;;;10326466;28;84222;-53
2022/06/02 08:54:47;;;;;;;;;;;21.50;1.00;;;;;;10346028;23;84899;-52
2022/06/02 09:00:02;;;;;;;;;;;22.40;1.00;;;;;;10328815;28;84221;-53
2022/06/02 09:05:09;;;;;;;;;;;22.10;99.90;;;;;;10368585;28;84131;-56
2022/06/02 09:10:12;;;;;;;;;;;20.10;1.00;;;;;;10370752;28;84136;-53
2022/06/02 09:15:31;;;;;;;;;;;18.60;1.00;;;;;;10354101;28;85511;-51
2022/06/02 09:20:44;;;;;;;;;;;18.10;1.00;;;;;;10353905;28;84981;-53
2022/06/02 09:25:47;;;;;;;;;;;19.90;99.90;;;;;;10365767;28;84133;-53
2022/06/02 09:30:55;;;;;;;;;;;22.00;1.00;;;;;;10363523;28;105788;-53
2022/06/02 09:35:59;;;;;;;;;;;23.30;99.90;;;;;;10366578;28;85856;-54
2022/06/02 09:41:15;;;;;;;;;;;21.70;99.90;;;;;;10362102;28;84285;-50
2022/06/02 09:46:26;;;;;;;;;;;22.10;1.00;;;;;;10370143;28;84064;-54
2022/06/02 09:51:49;;;;;;;;;;;21.70;1.00;;;;;;10368401;28;85335;-52
2022/06/02 09:57:55;;;;;;;;;;;22.00;1.00;;;;;;10370010;28;84068;-53
2022/06/02 10:02:30;;;;;;;;;;;20.80;1.00;;;;;;10359041;28;84128;-56
2022/06/02 10:08:00;;;;;;;;;;;22.20;1.00;;;;;;10367669;28;84306;-54
2022/06/02 10:13:19;;;;;;;;;;;23.40;1.00;;;;;;10296111;28;84211;-53
2022/06/02 10:18:26;;;;;;;;;;;24.80;1.00;;;;;;10369304;28;84331;-51
2022/06/02 10:23:32;;;;;;;;;;;23.20;1.00;;;;;;10369206;28;84166;-54
2022/06/02 10:28:53;;;;;;;;;;;23.70;1.00;;;;;;10368258;28;84986;-56
2022/06/02 10:33:56;;;;;;;;;;;24.70;99.90;;;;;;10323020;28;84636;-54
2022/06/02 10:39:01;;;;;;;;;;;25.80;99.90;;;;;;10367592;28;84887;-56
2022/06/02 10:44:02;;;;;;;;;;;25.80;99.90;;;;;;10367112;28;84892;-52
2022/06/02 10:49:21;;;;;;;;;;;24.50;99.90;;;;;;10370420;28;84861;-54
2022/06/02 10:54:27;;;;;;;;;;;22.80;99.90;;;;;;10373881;28;84268;-56
2022/06/02 10:59:37;;;;;;;;;;;21.20;99.90;;;;;;10370615;28;84139;-54
2022/06/02 11:04:56;;;;;;;;;;;22.50;99.90;;;;;;10375097;28;84274;-57
2022/06/02 11:10:15;;;;;;;;;;;24.70;99.90;;;;;;10374428;28;85042;-54
2022/06/02 11:15:51;;;;;;;;;;;24.70;99.90;;;;;;10374603;28;84742;-54
2022/06/02 11:21:01;;;;;;;;;;;23.70;99.90;;;;;;10271623;28;84226;-54
2022/06/02 11:26:17;;;;;;;;;;;22.70;99.90;;;;;;10332418;28;85415;-53
2022/06/02 11:31:36;;;;;;;;;;;23.80;99.90;;;;;;10331558;28;84420;-55
2022/06/02 11:36:39;;;;;;;;;;;25.20;99.90;;;;;;10369486;28;84726;-55
2022/06/02 11:41:45;;;;;;;;;;;25.90;99.90;;;;;;10369841;28;84960;-56
2022/06/02 11:46:46;;;;;;;;;;;26.80;99.90;;;;;;10372188;28;85224;-56
2022/06/02 11:52:05;;;;;;;;;;;27.90;99.90;;;;;;10371506;28;84498;-54
2022/06/02 11:57:17;;;;;;;;;;;26.70;99.90;;;;;;10365569;28;84835;-55
2022/06/02 12:02:29;;;;;;;;;;;25.70;97.70;;;;;;10368491;28;84989;-55
2022/06/02 12:07:38;;;;;;;;;;;24.30;99.90;;;;;;10370267;28;84906;-56
2022/06/02 12:12:57;;;;;;;;;;;25.90;99.90;;;;;;10370935;28;85151;-52
2022/06/02 12:18:18;;;;;;;;;;;27.40;99.90;;;;;;10359989;28;84741;-54
2022/06/02 12:23:31;;;;;;;;;;;27.20;65.40;;;;;;10344096;28;84250;-54
2022/06/02 12:28:44;;;;;;;;;;;27.70;37.40;;;;;;10370513;28;84298;-54
2022/06/02 12:33:51;;;;;;;;;;;28.00;26.60;;;;;;10364406;28;84788;-55
2022/06/02 12:39:12;;;;;;;;;;;28.30;22.70;;;;;;10368610;28;85980;-56
2022/06/02 12:44:35;;;;;;;;;;;28.40;26.30;;;;;;10369134;28;84156;-56
2022/06/02 12:49:50;;;;;;;;;;;27.30;18.30;;;;;;10359234;28;85607;-53
2022/06/02 12:54:59;;;;;;;;;;;25.50;1.00;;;;;;10391196;28;84956;-52
2022/06/02 13:00:18;;;;;;;;;;;26.20;1.00;;;;;;10366859;28;84450;-51
2022/06/02 13:05:37;;;;;;;;;;;25.60;1.00;;;;;;10401042;28;84884;-54
2022/06/02 13:11:00;;;;;;;;;;;24.70;1.00;;;;;;10407313;28;84227;-53
2022/06/02 13:16:06;;;;;;;;;;;25.60;1.00;;;;;;10377818;28;84578;-52
2022/06/02 13:21:26;;;;;;;;;;;26.70;1.00;;;;;;10393468;28;84863;-54
2022/06/02 13:26:36;;;;;;;;;;;27.40;1.00;;;;;;10412655;28;84179;-51
2022/06/02 13:31:49;;;;;;;;;;;28.00;1.00;;;;;;10392886;28;84932;-55
2022/06/02 13:37:15;;;;;;;;;;;27.30;1.00;;;;;;10411441;28;84299;-55
2022/06/02 13:42:36;;;;;;;;;;;26.60;1.00;;;;;;10411063;28;84780;-54
2022/06/02 13:47:39;;;;;;;;;;;26.70;1.00;;;;;;10397677;28;84636;-53
2022/06/02 13:52:58;;;;;;;;;;;26.30;1.00;;;;;;10395151;28;84909;-56
2022/06/02 13:58:11;;;;;;;;;;;25.60;1.00;;;;;;10410811;28;84131;-51
2022/06/02 14:03:28;;;;;;;;;;;25.70;1.00;;;;;;10376654;28;84956;-57
2022/06/02 14:08:55;;;;;;;;;;;24.80;1.00;;;;;;10399622;28;84733;-63
2022/06/02 14:14:14;;;;;;;;;;;24.50;1.00;;;;;;10367571;28;84312;-59
2022/06/02 14:19:24;;;;;;;;;;;23.30;1.00;;;;;;10333633;28;84986;-57
2022/06/02 14:24:35;;;;;;;;;;;22.30;1.00;;;;;;10335846;28;84203;-55
2022/06/02 14:29:55;;;;;;;;;;;22.00;1.00;;;;;;10349240;28;85905;-56
2022/06/02 14:35:15;;;;;;;;;;;21.90;1.00;;;;;;10392146;28;85254;-54
2022/06/02 14:40:37;;;;;;;;;;;22.20;1.00;;;;;;10336264;28;84032;-56
2022/06/02 14:45:57;;;;;;;;;;;22.10;1.00;;;;;;10361253;28;86252;-53
2022/06/02 14:50:57;;;;;;;;;;;22.10;1.00;;;;;;10416532;22;84278;-52
2022/06/02 14:55:58;;;;;;;;;;;21.70;1.00;;;;;;10349989;28;86933;-55
2022/06/02 15:00:59;;;;;;;;;;;21.90;1.00;;;;;;10367428;28;84208;-55
2022/06/02 15:06:02;;;;;;;;;;;21.90;1.00;;;;;;10367624;28;84117;-54
2022/06/02 15:11:21;;;;;;;;;;;22.10;12.20;;;;;;10365977;28;84939;-55
2022/06/02 15:16:34;;;;;;;;;;;21.90;20.00;;;;;;10340632;28;86698;-56
2022/06/02 15:21:34;;;;;;;;;;;21.60;10.50;;;;;;10365960;28;84836;-54
2022/06/02 15:26:38;;;;;;;;;;;21.40;40.00;;;;;;10352851;28;84732;-54
2022/06/02 15:31:45;;;;;;;;;;;21.10;63.50;;;;;;10353554;28;85326;-51
2022/06/02 15:37:02;;;;;;;;;;;21.00;84.80;;;;;;10369842;28;84913;-53
2022/06/02 15:42:21;;;;;;;;;;;20.80;99.90;;;;;;10361358;28;84775;-55
2022/06/02 15:47:40;;;;;;;;;;;20.80;99.90;;;;;;10367600;28;84810;-52
2022/06/02 15:52:40;;;;;;;;;;;20.80;99.90;;;;;;10369025;28;84999;-52
2022/06/02 15:57:44;;;;;;;;;;;20.70;99.90;;;;;;10368827;28;84608;-53
2022/06/02 16:03:14;;;;;;;;;;;20.70;99.90;;;;;;10372825;28;84243;-54
2022/06/02 16:08:33;;;;;;;;;;;20.70;99.90;;;;;;10353792;28;84041;-52
2022/06/02 16:13:42;;;;;;;;;;;20.70;99.90;;;;;;10370515;28;84187;-55
2022/06/02 16:18:49;;;;;;;;;;;20.40;99.90;;;;;;10372804;28;84882;-55
2022/06/02 16:23:52;;;;;;;;;;;20.30;99.90;;;;;;10373482;28;84839;-55
2022/06/02 16:29:11;;;;;;;;;;;20.20;99.90;;;;;;10373032;28;84806;-55
2022/06/02 16:34:32;;;;;;;;;;;20.00;99.90;;;;;;10370645;28;84233;-53
2022/06/02 16:39:47;;;;;;;;;;;20.00;99.90;;;;;;10313902;28;86906;-50
2022/06/02 16:44:57;;;;;;;;;;;20.00;99.90;;;;;;10365486;28;86567;-50
2022/06/02 16:49:58;;;;;;;;;;;19.70;99.90;;;;;;10362788;28;87037;-54
2022/06/02 16:55:17;;;;;;;;;;;19.90;1.00;;;;;;10368798;28;84723;-52
2022/06/02 17:00:38;;;;;;;;;;;19.90;1.00;;;;;;10368321;28;84113;-57
2022/06/02 17:05:47;;;;;;;;;;;20.00;1.00;;;;;;10369463;28;84133;-53
2022/06/02 17:11:10;;;;;;;;;;;20.00;1.00;;;;;;10364925;28;84926;-51
2022/06/02 17:16:29;;;;;;;;;;;19.90;1.00;;;;;;10365099;28;85055;-53
2022/06/02 17:21:32;;;;;;;;;;;19.80;1.00;;;;;;10363576;28;84259;-51
2022/06/02 17:26:39;;;;;;;;;;;19.70;1.00;;;;;;10348219;28;86239;-52
2022/06/02 17:31:40;;;;;;;;;;;19.60;1.00;;;;;;10365748;28;84837;-54
2022/06/02 17:36:41;;;;;;;;;;;19.30;1.00;;;;;;10347716;28;84878;-52
2022/06/02 17:42:04;;;;;;;;;;;19.20;1.00;;;;;;10364779;28;84055;-50
2022/06/02 17:47:24;;;;;;;;;;;19.20;1.00;;;;;;10343932;28;86139;-53
2022/06/02 17:52:40;;;;;;;;;;;19.20;1.00;;;;;;10365488;28;84029;-51
2022/06/02 17:57:41;;;;;;;;;;;19.10;1.00;;;;;;10367159;28;84469;-50
2022/06/02 18:02:49;;;;;;;;;;;19.20;1.00;;;;;;10369032;28;84965;-53
2022/06/02 18:07:55;;;;;;;;;;;19.00;1.00;;;;;;10348561;28;84975;-55
2022/06/02 18:12:58;;;;;;;;;;;18.90;1.00;;;;;;10359936;28;84283;-52
2022/06/02 18:17:59;;;;;;;;;;;18.80;7.00;;;;;;10366244;28;84238;-53
2022/06/02 18:22:59;;;;;;;;;;;18.70;99.90;;;;;;10371280;28;85009;-50
2022/06/02 18:28:19;;;;;;;;;;;18.70;99.90;;;;;;10366476;28;84228;-57
2022/06/02 18:33:22;;;;;;;;;;;18.50;99.90;;;;;;10361555;28;84823;-54
2022/06/02 18:38:46;;;;;;;;;;;18.40;99.90;;;;;;10349046;28;84978;-49
2022/06/02 18:43:46;;;;;;;;;;;18.30;99.90;;;;;;10356745;28;84837;-60
2022/06/02 18:49:19;;;;;;;;;;;18.30;1.00;;;;;;10349130;28;84177;-53
2022/06/02 18:54:32;;;;;;;;;;;18.20;1.00;;;;;;10292606;28;85009;-58
2022/06/02 18:59:33;;;;;;;;;;;18.20;1.00;;;;;;10371287;28;84169;-57
2022/06/02 19:04:52;;;;;;;;;;;18.10;99.90;;;;;;10356320;28;84264;-57
2022/06/02 19:15:12;;;;;;;;;;;17.80;91.40;;;;;;10368021;28;84216;-53
2022/06/02 19:20:19;;;;;;;;;;;17.70;1.00;;;;;;10368982;28;84559;-52
2022/06/02 19:25:25;;;;;;;;;;;17.50;24.10;;;;;;10356191;28;87127;-53
2022/06/02 19:30:44;;;;;;;;;;;17.50;1.00;;;;;;10370875;28;85591;-54
2022/06/02 19:35:59;;;;;;;;;;;17.40;35.40;;;;;;10370826;28;84208;-55
2022/06/02 19:41:00;;;;;;;;;;;17.20;1.00;;;;;;10369922;28;85371;-53
2022/06/02 19:46:00;;;;;;;;;;;17.10;99.90;;;;;;10373323;28;84797;-57
2022/06/02 19:51:09;;;;;;;;;;;17.00;1.00;;;;;;10369201;28;85084;-55
2022/06/02 19:56:13;;;;;;;;;;;16.90;1.00;;;;;;10355011;28;86020;-50
2022/06/02 20:01:13;;;;;;;;;;;16.80;99.90;;;;;;10368796;28;84233;-55
2022/06/02 20:06:14;;;;;;;;;;;16.70;99.90;;;;;;10371247;28;84981;-54
2022/06/02 20:11:50;;;;;;;;;;;16.60;1.00;;;;;;10369753;28;84253;-53
2022/06/02 20:17:03;;;;;;;;;;;16.50;99.90;;;;;;10283125;28;84809;-56
2022/06/02 20:22:16;;;;;;;;;;;16.30;99.90;;;;;;10369069;28;84998;-51
2022/06/02 20:27:23;;;;;;;;;;;16.20;1.00;;;;;;10366901;28;84328;-55
2022/06/02 20:32:28;;;;;;;;;;;16.20;1.00;;;;;;10369531;28;84238;-52
2022/06/02 20:37:38;;;;;;;;;;;16.10;9.80;;;;;;10369900;28;85761;-54
2022/06/02 20:42:47;;;;;;;;;;;16.00;99.90;;;;;;10344121;28;86407;-48
2022/06/02 20:47:54;;;;;;;;;;;15.90;99.90;;;;;;10367613;28;85101;-53
2022/06/02 20:53:14;;;;;;;;;;;15.80;1.00;;;;;;10356788;22;84194;-57
2022/06/02 20:58:19;;;;;;;;;;;15.80;1.00;;;;;;10249045;28;85058;-57
2022/06/02 21:03:28;;;;;;;;;;;15.70;1.00;;;;;;10289493;28;84944;-58
2022/06/02 21:08:36;;;;;;;;;;;15.50;1.00;;;;;;10255134;28;85010;-59
2022/06/02 21:13:49;;;;;;;;;;;15.50;1.00;;;;;;10247257;28;85075;-58
2022/06/02 21:18:50;;;;;;;;;;;15.40;1.00;;;;;;10263894;28;85949;-53
2022/06/02 21:24:05;;;;;;;;;;;15.30;1.00;;;;;;10271006;28;87193;-58
2022/06/02 21:29:08;;;;;;;;;;;15.20;15.00;;;;;;10250914;28;84415;-59
2022/06/02 21:34:10;;;;;;;;;;;15.10;36.90;;;;;;10248081;28;84156;-59
2022/06/02 21:39:11;;;;;;;;;;;15.10;99.90;;;;;;10283604;28;84940;-59
2022/06/02 21:44:15;;;;;;;;;;;15.10;99.90;;;;;;10287552;28;85465;-61
2022/06/02 21:49:25;;;;;;;;;;;14.90;99.90;;;;;;10246256;28;84195;-60
2022/06/02 21:54:28;;;;;;;;;;;14.90;99.90;;;;;;10228220;28;84961;-60
2022/06/02 21:59:32;;;;;;;;;;;14.70;99.90;;;;;;10287358;28;84139;-57
2022/06/02 22:04:39;;;;;;;;;;;14.70;99.90;;;;;;10266882;28;84185;-59
2022/06/02 22:09:51;;;;;;;;;;;14.60;99.90;;;;;;10243465;28;84747;-59
2022/06/02 22:14:55;;;;;;;;;;;14.50;99.90;;;;;;10248590;28;84225;-57
2022/06/02 22:20:05;;;;;;;;;;;14.40;99.90;;;;;;10246574;28;84090;-57
2022/06/02 22:25:13;;;;;;;;;;;14.30;1.00;;;;;;10250097;28;84977;-56
2022/06/02 22:30:20;;;;;;;;;;;14.30;1.00;;;;;;10285302;28;84735;-60
2022/06/02 22:35:50;;;;;;;;;;;14.20;1.00;;;;;;10279852;28;85264;-55
2022/06/02 22:41:03;;;;;;;;;;;14.10;1.00;;;;;;10191832;28;84947;-60
2022/06/02 22:46:13;;;;;;;;;;;14.10;1.00;;;;;;10256668;28;85180;-59
2022/06/02 22:51:24;;;;;;;;;;;14.00;1.00;;;;;;10258182;28;85340;-57
2022/06/02 22:56:38;;;;;;;;;;;14.00;1.00;;;;;;10245059;28;84745;-59
2022/06/02 23:01:42;;;;;;;;;;;13.90;1.00;;;;;;10220261;28;85841;-58
2022/06/02 23:07:01;;;;;;;;;;;13.90;1.00;;;;;;10245030;28;85797;-59
2022/06/02 23:12:20;;;;;;;;;;;13.80;1.00;;;;;;10244455;28;84084;-59
2022/06/02 23:17:42;;;;;;;;;;;13.70;1.00;;;;;;10244674;28;85022;-59
2022/06/02 23:22:52;;;;;;;;;;;13.60;1.00;;;;;;10235559;28;84981;-60
2022/06/02 23:28:11;;;;;;;;;;;13.60;1.00;;;;;;10243483;28;84289;-59
2022/06/02 23:33:12;;;;;;;;;;;13.50;1.00;;;;;;10237584;28;84217;-59
2022/06/02 23:38:15;;;;;;;;;;;13.50;1.00;;;;;;10244753;28;84222;-59
2022/06/02 23:48:56;;;;;;;;;;;13.30;1.00;;;;;;10253033;28;84957;-58
2022/06/02 23:54:05;;;;;;;;;;;13.30;1.00;;;;;;10249958;28;84827;-59
2022/06/02 23:59:10;;;;;;;;;;;13.20;1.00;;;;;;10256060;28;84254;-60
